sensor_id;sensor_type;location;lat;lon;timestamp;temperature;humidity
19610;DHT22;9952;47.122;-1.638;2023-02-28T00:02:19;3.00;99.90
19610;DHT22;9952;47.122;-1.638;2023-02-28T00:06:59;3.00;99.90
19610;DHT22;9952;47.122;-1.638;2023-02-28T00:11:40;3.00;99.90
19610;DHT22;9952;47.122;-1.638;2023-02-28T00:16:22;2.90;99.90
19610;DHT22;9952;47.122;-1.638;2023-02-28T00:21:04;2.90;99.90
19610;DHT22;9952;47.122;-1.638;2023-02-28T00:25:45;2.80;99.90
19610;DHT22;9952;47.122;-1.638;2023-02-28T00:30:25;2.80;99.90
19610;DHT22;9952;47.122;-1.638;2023-02-28T00:35:07;2.70;99.90
19610;DHT22;9952;47.122;-1.638;2023-02-28T00:39:49;2.70;99.90
19610;DHT22;9952;47.122;-1.638;2023-02-28T00:44:30;2.70;99.90
19610;DHT22;9952;47.122;-1.638;2023-02-28T00:49:11;2.50;99.90
19610;DHT22;9952;47.122;-1.638;2023-02-28T00:53:51;2.50;99.90
19610;DHT22;9952;47.122;-1.638;2023-02-28T00:58:32;2.50;99.90
19610;DHT22;9952;47.122;-1.638;2023-02-28T01:03:13;2.50;99.90
19610;DHT22;9952;47.122;-1.638;2023-02-28T01:07:54;2.50;99.90
19610;DHT22;9952;47.122;-1.638;2023-02-28T01:12:35;2.50;99.90
19610;DHT22;9952;47.122;-1.638;2023-02-28T01:17:15;2.50;99.90
19610;DHT22;9952;47.122;-1.638;2023-02-28T01:21:56;2.50;99.90
19610;DHT22;9952;47.122;-1.638;2023-02-28T01:26:37;2.40;99.90
19610;DHT22;9952;47.122;-1.638;2023-02-28T01:31:18;2.20;99.90
19610;DHT22;9952;47.122;-1.638;2023-02-28T01:36:09;2.30;99.90
19610;DHT22;9952;47.122;-1.638;2023-02-28T01:40:51;2.30;99.90
19610;DHT22;9952;47.122;-1.638;2023-02-28T01:45:31;2.20;99.90
19610;DHT22;9952;47.122;-1.638;2023-02-28T01:50:17;2.20;99.90
19610;DHT22;9952;47.122;-1.638;2023-02-28T01:55:01;2.20;99.90
19610;DHT22;9952;47.122;-1.638;2023-02-28T01:59:48;2.10;99.90
19610;DHT22;9952;47.122;-1.638;2023-02-28T02:04:55;2.20;99.90
19610;DHT22;9952;47.122;-1.638;2023-02-28T02:09:37;2.10;99.90
19610;DHT22;9952;47.122;-1.638;2023-02-28T02:14:48;2.10;99.90
19610;DHT22;9952;47.122;-1.638;2023-02-28T02:19:58;2.10;99.90
19610;DHT22;9952;47.122;-1.638;2023-02-28T02:30:10;2.00;99.90
19610;DHT22;9952;47.122;-1.638;2023-02-28T02:39:58;1.80;99.90
19610;DHT22;9952;47.122;-1.638;2023-02-28T02:44:46;1.70;99.90
19610;DHT22;9952;47.122;-1.638;2023-02-28T02:49:32;1.80;99.90
19610;DHT22;9952;47.122;-1.638;2023-02-28T02:54:19;1.80;99.90
19610;DHT22;9952;47.122;-1.638;2023-02-28T02:59:07;1.70;99.90
19610;DHT22;9952;47.122;-1.638;2023-02-28T03:03:50;1.60;99.90
19610;DHT22;9952;47.122;-1.638;2023-02-28T03:08:34;1.60;99.90
19610;DHT22;9952;47.122;-1.638;2023-02-28T03:13:40;1.50;99.90
19610;DHT22;9952;47.122;-1.638;2023-02-28T03:23:23;1.40;99.90
19610;DHT22;9952;47.122;-1.638;2023-02-28T03:33:05;1.20;99.90
19610;DHT22;9952;47.122;-1.638;2023-02-28T03:37:52;1.20;99.90
19610;DHT22;9952;47.122;-1.638;2023-02-28T03:42:36;1.20;99.90
19610;DHT22;9952;47.122;-1.638;2023-02-28T03:47:39;1.20;99.90
19610;DHT22;9952;47.122;-1.638;2023-02-28T03:52:24;1.20;99.90
19610;DHT22;9952;47.122;-1.638;2023-02-28T03:57:42;1.30;99.90
19610;DHT22;9952;47.122;-1.638;2023-02-28T04:02:24;1.20;99.90
19610;DHT22;9952;47.122;-1.638;2023-02-28T04:07:07;1.10;99.90
19610;DHT22;9952;47.122;-1.638;2023-02-28T04:11:53;1.10;99.90
19610;DHT22;9952;47.122;-1.638;2023-02-28T04:16:39;1.10;99.90
19610;DHT22;9952;47.122;-1.638;2023-02-28T04:21:20;1.00;99.90
19610;DHT22;9952;47.122;-1.638;2023-02-28T04:26:01;1.00;99.90
19610;DHT22;9952;47.122;-1.638;2023-02-28T04:30:42;0.90;99.90
19610;DHT22;9952;47.122;-1.638;2023-02-28T04:35:22;0.80;99.90
19610;DHT22;9952;47.122;-1.638;2023-02-28T04:40:04;0.90;99.90
19610;DHT22;9952;47.122;-1.638;2023-02-28T04:44:44;1.00;99.90
19610;DHT22;9952;47.122;-1.638;2023-02-28T04:49:25;0.90;99.90
19610;DHT22;9952;47.122;-1.638;2023-02-28T04:54:06;0.90;99.90
19610;DHT22;9952;47.122;-1.638;2023-02-28T04:58:48;0.80;99.90
19610;DHT22;9952;47.122;-1.638;2023-02-28T05:03:29;0.80;99.90
19610;DHT22;9952;47.122;-1.638;2023-02-28T05:08:10;0.90;99.90
19610;DHT22;9952;47.122;-1.638;2023-02-28T05:12:51;0.80;99.90
19610;DHT22;9952;47.122;-1.638;2023-02-28T05:17:31;0.70;99.90
19610;DHT22;9952;47.122;-1.638;2023-02-28T05:22:15;0.70;99.90
19610;DHT22;9952;47.122;-1.638;2023-02-28T05:26:59;0.70;99.90
19610;DHT22;9952;47.122;-1.638;2023-02-28T05:31:40;0.60;99.90
19610;DHT22;9952;47.122;-1.638;2023-02-28T05:36:21;0.60;99.90
19610;DHT22;9952;47.122;-1.638;2023-02-28T05:41:11;0.50;99.90
19610;DHT22;9952;47.122;-1.638;2023-02-28T05:45:52;0.50;99.90
19610;DHT22;9952;47.122;-1.638;2023-02-28T05:50:32;0.50;99.90
19610;DHT22;9952;47.122;-1.638;2023-02-28T05:55:13;0.40;99.90
19610;DHT22;9952;47.122;-1.638;2023-02-28T05:59:54;0.40;99.90
19610;DHT22;9952;47.122;-1.638;2023-02-28T06:04:35;0.50;99.90
19610;DHT22;9952;47.122;-1.638;2023-02-28T06:09:16;0.50;99.90
19610;DHT22;9952;47.122;-1.638;2023-02-28T06:13:58;0.40;99.90
19610;DHT22;9952;47.122;-1.638;2023-02-28T06:18:42;0.50;99.90
19610;DHT22;9952;47.122;-1.638;2023-02-28T06:23:23;0.50;99.90
19610;DHT22;9952;47.122;-1.638;2023-02-28T06:28:04;0.40;99.90
19610;DHT22;9952;47.122;-1.638;2023-02-28T06:32:45;0.30;99.90
19610;DHT22;9952;47.122;-1.638;2023-02-28T06:37:25;0.30;99.90
19610;DHT22;9952;47.122;-1.638;2023-02-28T06:42:06;0.30;99.90
19610;DHT22;9952;47.122;-1.638;2023-02-28T06:46:47;0.30;99.90
19610;DHT22;9952;47.122;-1.638;2023-02-28T06:51:28;0.20;99.90
19610;DHT22;9952;47.122;-1.638;2023-02-28T06:56:12;0.10;99.90
19610;DHT22;9952;47.122;-1.638;2023-02-28T07:00:53;0.20;99.90
19610;DHT22;9952;47.122;-1.638;2023-02-28T07:05:37;0.10;99.90
19610;DHT22;9952;47.122;-1.638;2023-02-28T07:10:18;0.10;99.90
19610;DHT22;9952;47.122;-1.638;2023-02-28T07:15:00;0.20;99.90
19610;DHT22;9952;47.122;-1.638;2023-02-28T07:19:40;0.30;99.90
19610;DHT22;9952;47.122;-1.638;2023-02-28T07:24:21;0.40;99.90
19610;DHT22;9952;47.122;-1.638;2023-02-28T07:29:04;0.50;99.90
19610;DHT22;9952;47.122;-1.638;2023-02-28T07:33:45;0.70;99.90
19610;DHT22;9952;47.122;-1.638;2023-02-28T07:38:25;0.70;99.90
19610;DHT22;9952;47.122;-1.638;2023-02-28T07:43:06;0.90;99.90
19610;DHT22;9952;47.122;-1.638;2023-02-28T07:47:47;1.20;99.90
19610;DHT22;9952;47.122;-1.638;2023-02-28T07:52:28;1.80;99.90
19610;DHT22;9952;47.122;-1.638;2023-02-28T07:57:08;2.20;99.90
19610;DHT22;9952;47.122;-1.638;2023-02-28T08:01:49;2.60;99.90
19610;DHT22;9952;47.122;-1.638;2023-02-28T08:06:30;3.00;99.90
19610;DHT22;9952;47.122;-1.638;2023-02-28T08:11:11;3.30;99.90
19610;DHT22;9952;47.122;-1.638;2023-02-28T08:15:52;3.40;99.90
19610;DHT22;9952;47.122;-1.638;2023-02-28T08:20:34;3.50;99.90
19610;DHT22;9952;47.122;-1.638;2023-02-28T08:25:15;3.40;99.90
19610;DHT22;9952;47.122;-1.638;2023-02-28T08:29:56;3.50;99.90
19610;DHT22;9952;47.122;-1.638;2023-02-28T08:34:39;3.30;99.90
19610;DHT22;9952;47.122;-1.638;2023-02-28T08:39:20;3.40;99.90
19610;DHT22;9952;47.122;-1.638;2023-02-28T08:44:00;3.20;99.90
19610;DHT22;9952;47.122;-1.638;2023-02-28T08:48:42;3.40;99.90
19610;DHT22;9952;47.122;-1.638;2023-02-28T08:53:24;3.40;99.90
19610;DHT22;9952;47.122;-1.638;2023-02-28T08:58:04;3.80;99.90
19610;DHT22;9952;47.122;-1.638;2023-02-28T09:02:45;4.10;99.90
19610;DHT22;9952;47.122;-1.638;2023-02-28T09:07:26;4.30;99.90
19610;DHT22;9952;47.122;-1.638;2023-02-28T09:12:07;4.40;99.90
19610;DHT22;9952;47.122;-1.638;2023-02-28T09:16:49;4.40;99.90
19610;DHT22;9952;47.122;-1.638;2023-02-28T09:21:29;4.50;99.90
19610;DHT22;9952;47.122;-1.638;2023-02-28T09:26:16;4.60;99.90
19610;DHT22;9952;47.122;-1.638;2023-02-28T09:30:57;4.70;99.90
19610;DHT22;9952;47.122;-1.638;2023-02-28T09:35:39;4.80;99.90
19610;DHT22;9952;47.122;-1.638;2023-02-28T09:40:25;4.60;99.90
19610;DHT22;9952;47.122;-1.638;2023-02-28T09:45:33;4.90;99.90
19610;DHT22;9952;47.122;-1.638;2023-02-28T09:50:55;5.20;99.90
19610;DHT22;9952;47.122;-1.638;2023-02-28T09:55:39;5.50;99.90
19610;DHT22;9952;47.122;-1.638;2023-02-28T10:05:20;6.80;99.90
19610;DHT22;9952;47.122;-1.638;2023-02-28T10:10:51;7.10;99.90
19610;DHT22;9952;47.122;-1.638;2023-02-28T10:15:09;6.80;99.90
19610;DHT22;9952;47.122;-1.638;2023-02-28T10:20:27;6.80;99.90
19610;DHT22;9952;47.122;-1.638;2023-02-28T10:25:23;6.80;99.90
19610;DHT22;9952;47.122;-1.638;2023-02-28T10:30:05;6.90;99.90
19610;DHT22;9952;47.122;-1.638;2023-02-28T10:39:52;6.80;99.90
19610;DHT22;9952;47.122;-1.638;2023-02-28T10:44:32;6.80;99.90
19610;DHT22;9952;47.122;-1.638;2023-02-28T10:49:23;7.00;99.90
19610;DHT22;9952;47.122;-1.638;2023-02-28T10:54:04;7.00;99.90
19610;DHT22;9952;47.122;-1.638;2023-02-28T10:58:59;7.00;99.90
19610;DHT22;9952;47.122;-1.638;2023-02-28T11:03:39;7.00;99.90
19610;DHT22;9952;47.122;-1.638;2023-02-28T11:08:20;6.90;99.90
19610;DHT22;9952;47.122;-1.638;2023-02-28T11:13:01;6.90;99.90
19610;DHT22;9952;47.122;-1.638;2023-02-28T11:17:44;6.90;99.90
19610;DHT22;9952;47.122;-1.638;2023-02-28T11:22:27;7.10;99.90
19610;DHT22;9952;47.122;-1.638;2023-02-28T11:32:14;7.20;99.90
19610;DHT22;9952;47.122;-1.638;2023-02-28T11:36:58;7.20;99.90
19610;DHT22;9952;47.122;-1.638;2023-02-28T11:52:16;7.60;99.90
19610;DHT22;9952;47.122;-1.638;2023-02-28T11:57:11;7.70;99.90
19610;DHT22;9952;47.122;-1.638;2023-02-28T12:02:35;7.50;99.90
19610;DHT22;9952;47.122;-1.638;2023-02-28T12:07:21;7.60;99.90
19610;DHT22;9952;47.122;-1.638;2023-02-28T12:12:37;7.70;99.90
19610;DHT22;9952;47.122;-1.638;2023-02-28T12:17:41;7.60;99.90
19610;DHT22;9952;47.122;-1.638;2023-02-28T12:22:31;7.50;99.90
19610;DHT22;9952;47.122;-1.638;2023-02-28T12:27:16;7.70;99.90
19610;DHT22;9952;47.122;-1.638;2023-02-28T12:32:22;7.70;99.90
19610;DHT22;9952;47.122;-1.638;2023-02-28T12:37:17;7.70;99.90
19610;DHT22;9952;47.122;-1.638;2023-02-28T12:42:05;7.70;99.90
19610;DHT22;9952;47.122;-1.638;2023-02-28T12:46:55;7.80;99.90
19610;DHT22;9952;47.122;-1.638;2023-02-28T12:51:37;8.10;99.90
19610;DHT22;9952;47.122;-1.638;2023-02-28T12:56:27;8.00;99.90
19610;DHT22;9952;47.122;-1.638;2023-02-28T13:11:47;8.20;99.90
19610;DHT22;9952;47.122;-1.638;2023-02-28T13:16:28;8.30;99.90
19610;DHT22;9952;47.122;-1.638;2023-02-28T13:21:29;8.40;99.90
19610;DHT22;9952;47.122;-1.638;2023-02-28T13:26:10;8.40;99.90
19610;DHT22;9952;47.122;-1.638;2023-02-28T13:35:38;8.30;99.90
19610;DHT22;9952;47.122;-1.638;2023-02-28T13:40:33;8.30;99.90
19610;DHT22;9952;47.122;-1.638;2023-02-28T13:45:24;8.50;99.60
19610;DHT22;9952;47.122;-1.638;2023-02-28T14:05:05;8.80;99.90
19610;DHT22;9952;47.122;-1.638;2023-02-28T14:09:56;8.60;99.90
19610;DHT22;9952;47.122;-1.638;2023-02-28T14:19:28;8.40;99.90
19610;DHT22;9952;47.122;-1.638;2023-02-28T14:39:24;8.60;99.90
19610;DHT22;9952;47.122;-1.638;2023-02-28T14:44:27;8.80;99.90
19610;DHT22;9952;47.122;-1.638;2023-02-28T14:54:03;8.90;99.90
19610;DHT22;9952;47.122;-1.638;2023-02-28T14:58:52;9.00;99.90
19610;DHT22;9952;47.122;-1.638;2023-02-28T15:03:38;8.80;99.90
19610;DHT22;9952;47.122;-1.638;2023-02-28T15:08:19;8.80;99.90
19610;DHT22;9952;47.122;-1.638;2023-02-28T15:13:05;8.90;99.90
19610;DHT22;9952;47.122;-1.638;2023-02-28T15:17:51;9.10;99.90
19610;DHT22;9952;47.122;-1.638;2023-02-28T15:22:36;9.00;99.90
19610;DHT22;9952;47.122;-1.638;2023-02-28T15:27:32;8.90;99.90
19610;DHT22;9952;47.122;-1.638;2023-02-28T15:32:33;8.90;99.90
19610;DHT22;9952;47.122;-1.638;2023-02-28T15:37:40;8.90;99.90
19610;DHT22;9952;47.122;-1.638;2023-02-28T15:42:28;8.80;99.90
19610;DHT22;9952;47.122;-1.638;2023-02-28T15:47:29;8.50;99.90
19610;DHT22;9952;47.122;-1.638;2023-02-28T15:52:17;8.50;99.90
19610;DHT22;9952;47.122;-1.638;2023-02-28T15:57:06;8.60;99.90
19610;DHT22;9952;47.122;-1.638;2023-02-28T16:11:48;8.60;99.90
19610;DHT22;9952;47.122;-1.638;2023-02-28T16:16:31;8.70;99.90
19610;DHT22;9952;47.122;-1.638;2023-02-28T16:21:13;8.70;99.90
19610;DHT22;9952;47.122;-1.638;2023-02-28T16:25:54;8.80;99.90
19610;DHT22;9952;47.122;-1.638;2023-02-28T16:30:34;8.70;99.90
19610;DHT22;9952;47.122;-1.638;2023-02-28T16:35:16;8.40;99.90
19610;DHT22;9952;47.122;-1.638;2023-02-28T16:39:58;8.40;99.90
19610;DHT22;9952;47.122;-1.638;2023-02-28T16:44:40;8.30;99.90
19610;DHT22;9952;47.122;-1.638;2023-02-28T16:49:20;8.10;99.90
19610;DHT22;9952;47.122;-1.638;2023-02-28T16:54:01;8.30;99.90
19610;DHT22;9952;47.122;-1.638;2023-02-28T16:58:42;8.10;99.90
19610;DHT22;9952;47.122;-1.638;2023-02-28T17:03:26;8.00;99.90
19610;DHT22;9952;47.122;-1.638;2023-02-28T17:08:08;7.90;99.90
19610;DHT22;9952;47.122;-1.638;2023-02-28T17:12:50;7.70;99.90
19610;DHT22;9952;47.122;-1.638;2023-02-28T17:17:30;7.80;99.90
19610;DHT22;9952;47.122;-1.638;2023-02-28T17:22:11;7.60;99.90
19610;DHT22;9952;47.122;-1.638;2023-02-28T17:26:52;7.30;99.90
19610;DHT22;9952;47.122;-1.638;2023-02-28T17:31:33;7.20;99.90
19610;DHT22;9952;47.122;-1.638;2023-02-28T17:36:24;7.00;99.90
19610;DHT22;9952;47.122;-1.638;2023-02-28T17:41:06;7.00;99.90
19610;DHT22;9952;47.122;-1.638;2023-02-28T17:45:46;6.80;99.90
19610;DHT22;9952;47.122;-1.638;2023-02-28T17:50:27;6.60;99.90
19610;DHT22;9952;47.122;-1.638;2023-02-28T17:55:09;6.50;99.90
19610;DHT22;9952;47.122;-1.638;2023-02-28T17:59:50;6.50;99.90
19610;DHT22;9952;47.122;-1.638;2023-02-28T18:04:31;6.40;99.90
19610;DHT22;9952;47.122;-1.638;2023-02-28T18:09:13;6.30;99.90
19610;DHT22;9952;47.122;-1.638;2023-02-28T18:13:55;6.20;99.90
19610;DHT22;9952;47.122;-1.638;2023-02-28T18:18:37;6.10;99.90
19610;DHT22;9952;47.122;-1.638;2023-02-28T18:23:18;6.10;99.90
19610;DHT22;9952;47.122;-1.638;2023-02-28T18:28:00;6.00;99.90
19610;DHT22;9952;47.122;-1.638;2023-02-28T18:32:41;6.00;99.90
19610;DHT22;9952;47.122;-1.638;2023-02-28T18:37:22;5.90;99.90
19610;DHT22;9952;47.122;-1.638;2023-02-28T18:42:03;5.80;99.90
19610;DHT22;9952;47.122;-1.638;2023-02-28T18:46:44;5.70;99.90
19610;DHT22;9952;47.122;-1.638;2023-02-28T18:51:26;5.50;99.90
19610;DHT22;9952;47.122;-1.638;2023-02-28T18:56:10;5.40;99.90
19610;DHT22;9952;47.122;-1.638;2023-02-28T19:00:52;5.30;99.90
19610;DHT22;9952;47.122;-1.638;2023-02-28T19:05:34;5.30;99.90
19610;DHT22;9952;47.122;-1.638;2023-02-28T19:10:15;5.10;99.90
19610;DHT22;9952;47.122;-1.638;2023-02-28T19:14:56;5.00;99.90
19610;DHT22;9952;47.122;-1.638;2023-02-28T19:19:36;4.90;99.90
19610;DHT22;9952;47.122;-1.638;2023-02-28T19:24:17;5.00;99.90
19610;DHT22;9952;47.122;-1.638;2023-02-28T19:29:02;5.00;99.90
19610;DHT22;9952;47.122;-1.638;2023-02-28T19:33:44;4.90;99.90
19610;DHT22;9952;47.122;-1.638;2023-02-28T19:38:24;5.00;99.90
19610;DHT22;9952;47.122;-1.638;2023-02-28T19:43:05;4.90;99.90
19610;DHT22;9952;47.122;-1.638;2023-02-28T19:47:47;5.00;99.90
19610;DHT22;9952;47.122;-1.638;2023-02-28T19:52:28;5.10;99.90
19610;DHT22;9952;47.122;-1.638;2023-02-28T19:57:09;5.00;99.90
19610;DHT22;9952;47.122;-1.638;2023-02-28T20:01:51;5.00;99.90
19610;DHT22;9952;47.122;-1.638;2023-02-28T20:06:35;5.00;99.90
19610;DHT22;9952;47.122;-1.638;2023-02-28T20:11:16;5.00;99.90
19610;DHT22;9952;47.122;-1.638;2023-02-28T20:15:59;4.90;99.90
19610;DHT22;9952;47.122;-1.638;2023-02-28T20:20:40;4.90;99.90
19610;DHT22;9952;47.122;-1.638;2023-02-28T20:25:21;4.90;99.90
19610;DHT22;9952;47.122;-1.638;2023-02-28T20:30:03;5.00;99.90
19610;DHT22;9952;47.122;-1.638;2023-02-28T20:34:45;5.00;99.90
19610;DHT22;9952;47.122;-1.638;2023-02-28T20:39:26;4.90;99.90
19610;DHT22;9952;47.122;-1.638;2023-02-28T20:44:11;4.80;99.90
19610;DHT22;9952;47.122;-1.638;2023-02-28T20:48:52;4.80;99.90
19610;DHT22;9952;47.122;-1.638;2023-02-28T20:53:33;4.70;99.90
19610;DHT22;9952;47.122;-1.638;2023-02-28T20:58:15;4.60;99.90
19610;DHT22;9952;47.122;-1.638;2023-02-28T21:02:55;4.60;99.90
19610;DHT22;9952;47.122;-1.638;2023-02-28T21:07:38;4.60;99.90
19610;DHT22;9952;47.122;-1.638;2023-02-28T21:12:18;4.50;99.90
19610;DHT22;9952;47.122;-1.638;2023-02-28T21:16:59;4.50;99.90
19610;DHT22;9952;47.122;-1.638;2023-02-28T21:21:41;4.50;99.90
19610;DHT22;9952;47.122;-1.638;2023-02-28T21:26:23;4.50;99.90
19610;DHT22;9952;47.122;-1.638;2023-02-28T21:31:09;4.30;99.90
19610;DHT22;9952;47.122;-1.638;2023-02-28T21:35:50;4.40;99.90
19610;DHT22;9952;47.122;-1.638;2023-02-28T21:40:32;4.20;99.90
19610;DHT22;9952;47.122;-1.638;2023-02-28T21:45:13;4.20;99.90
19610;DHT22;9952;47.122;-1.638;2023-02-28T21:49:55;4.10;99.90
19610;DHT22;9952;47.122;-1.638;2023-02-28T21:54:35;4.10;99.90
19610;DHT22;9952;47.122;-1.638;2023-02-28T21:59:17;4.00;99.90
19610;DHT22;9952;47.122;-1.638;2023-02-28T22:03:59;4.00;99.90
19610;DHT22;9952;47.122;-1.638;2023-02-28T22:08:42;4.00;99.90
19610;DHT22;9952;47.122;-1.638;2023-02-28T22:13:23;4.00;99.90
19610;DHT22;9952;47.122;-1.638;2023-02-28T22:18:04;3.90;99.90
19610;DHT22;9952;47.122;-1.638;2023-02-28T22:22:45;3.80;99.90
19610;DHT22;9952;47.122;-1.638;2023-02-28T22:27:25;3.70;99.90
19610;DHT22;9952;47.122;-1.638;2023-02-28T22:32:07;3.60;99.90
19610;DHT22;9952;47.122;-1.638;2023-02-28T22:36:49;3.50;99.90
19610;DHT22;9952;47.122;-1.638;2023-02-28T22:41:30;3.50;99.90
19610;DHT22;9952;47.122;-1.638;2023-02-28T22:46:12;3.40;99.90
19610;DHT22;9952;47.122;-1.638;2023-02-28T22:51:04;3.20;99.90
19610;DHT22;9952;47.122;-1.638;2023-02-28T22:55:53;3.20;99.90
19610;DHT22;9952;47.122;-1.638;2023-02-28T23:00:34;3.20;99.90
19610;DHT22;9952;47.122;-1.638;2023-02-28T23:05:15;3.10;99.90
19610;DHT22;9952;47.122;-1.638;2023-02-28T23:09:56;3.20;99.90
19610;DHT22;9952;47.122;-1.638;2023-02-28T23:14:37;3.10;99.90
19610;DHT22;9952;47.122;-1.638;2023-02-28T23:19:27;3.20;99.90
19610;DHT22;9952;47.122;-1.638;2023-02-28T23:24:10;3.20;99.90
19610;DHT22;9952;47.122;-1.638;2023-02-28T23:28:51;3.10;99.90
19610;DHT22;9952;47.122;-1.638;2023-02-28T23:33:32;3.10;99.90
19610;DHT22;9952;47.122;-1.638;2023-02-28T23:38:13;3.10;99.90
19610;DHT22;9952;47.122;-1.638;2023-02-28T23:42:54;3.00;99.90
19610;DHT22;9952;47.122;-1.638;2023-02-28T23:47:35;2.90;99.90
19610;DHT22;9952;47.122;-1.638;2023-02-28T23:52:15;2.90;99.90
19610;DHT22;9952;47.122;-1.638;2023-02-28T23:56:57;2.80;99.90
